EXS3226 LPMA-EGGP
Flight info
| Callsign | EXS3226 |
|---|---|
| Flight time | 3h 24m |
| Altitude | 36000 |
| Route | DEGUN DCT ROLAR DCT MARUM DCT IBIDO DCT DEMOS DCT KORUL DCT KOLEK DCT EBOMO DCT RUSIB DCT NOZHU/N0443F370 DCT SHIRI DCT TOJAQ DCT EPACE DCT ACCOP DCT MOCQO P16 PEPZE |
| Aircraft | B738/M-SDE2E3FGHIRWXY/LB1 |
Departure
| Time | 2026-05-04 19:02 |
|---|---|
| Airport | Cristiano Ronaldo International Airport (LPMA) |
Arrival
| Time | 2026-05-04 22:26 |
|---|---|
| Airport | Liverpool John Lennon Airport (EGGP) |
| Time | Latitude | Longitude | Altitude | Speed | Heading |
|---|---|---|---|---|---|
| 2026-05-04 18:20 | 32.69358 | -16.77661 | 168 ft | 0 kts | 139° |
| 2026-05-04 18:50 | 32.69362 | -16.77665 | 168 ft | 4 kts | 139° |
| 2026-05-04 18:51 | 32.69381 | -16.77685 | 168 ft | 2 kts | 139° |
| 2026-05-04 18:51 | 32.69397 | -16.77703 | 168 ft | 4 kts | 116° |
| 2026-05-04 18:51 | 32.69397 | -16.77723 | 168 ft | 3 kts | 46° |
| 2026-05-04 18:51 | 32.69383 | -16.77741 | 168 ft | 0 kts | 46° |
| 2026-05-04 18:54 | 32.69383 | -16.77740 | 168 ft | 0 kts | 46° |
| 2026-05-04 18:54 | 32.69399 | -16.77721 | 168 ft | 7 kts | 46° |
| 2026-05-04 18:54 | 32.69452 | -16.77656 | 168 ft | 13 kts | 46° |
| 2026-05-04 18:55 | 32.69517 | -16.77575 | 168 ft | 13 kts | 46° |
| 2026-05-04 18:55 | 32.69640 | -16.77422 | 168 ft | 12 kts | 46° |
| 2026-05-04 18:55 | 32.69699 | -16.77349 | 169 ft | 12 kts | 46° |
| 2026-05-04 18:56 | 32.69748 | -16.77289 | 174 ft | 6 kts | 45° |
| 2026-05-04 18:56 | 32.69765 | -16.77269 | 176 ft | 3 kts | 45° |
| 2026-05-04 18:56 | 32.69780 | -16.77251 | 178 ft | 3 kts | 45° |
| 2026-05-04 18:56 | 32.69792 | -16.77236 | 179 ft | 2 kts | 46° |
| 2026-05-04 18:57 | 32.69802 | -16.77224 | 180 ft | 2 kts | 46° |
| 2026-05-04 18:57 | 32.69827 | -16.77194 | 181 ft | 10 kts | 41° |
| 2026-05-04 18:57 | 32.69914 | -16.77179 | 186 ft | 15 kts | 359° |
| 2026-05-04 18:57 | 32.70033 | -16.77155 | 185 ft | 20 kts | 33° |
| 2026-05-04 18:58 | 32.70155 | -16.77016 | 187 ft | 28 kts | 45° |
| 2026-05-04 18:58 | 32.70295 | -16.76855 | 187 ft | 19 kts | 43° |
| 2026-05-04 18:58 | 32.70380 | -16.76813 | 187 ft | 12 kts | 26° |
| 2026-05-04 18:58 | 32.70384 | -16.76765 | 186 ft | 4 kts | 171° |
| 2026-05-04 18:59 | 32.70376 | -16.76767 | 192 ft | 0 kts | 195° |
| 2026-05-04 18:59 | 32.70374 | -16.76767 | 191 ft | 2 kts | 180° |
| 2026-05-04 18:59 | 32.70372 | -16.76747 | 185 ft | 5 kts | 59° |
| 2026-05-04 18:59 | 32.70436 | -16.76685 | 185 ft | 19 kts | 38° |
| 2026-05-04 19:00 | 32.70563 | -16.76540 | 192 ft | 27 kts | 45° |
| 2026-05-04 19:00 | 32.70681 | -16.76465 | 187 ft | 12 kts | 37° |
| 2026-05-04 19:00 | 32.70686 | -16.76423 | 188 ft | 4 kts | 135° |
| 2026-05-04 19:00 | 32.70657 | -16.76431 | 189 ft | 6 kts | 214° |
| 2026-05-04 19:01 | 32.70590 | -16.76507 | 196 ft | 36 kts | 224° |
| 2026-05-04 19:01 | 32.70237 | -16.76920 | 187 ft | 105 kts | 224° |
| 2026-05-04 19:01 | 32.69582 | -16.77683 | 177 ft | 161 kts | 223° |
| 2026-05-04 19:01 | 32.68705 | -16.78675 | 633 ft | 174 kts | 217° |
| 2026-05-04 19:02 | 32.67641 | -16.79380 | 1246 ft | 188 kts | 204° |
| 2026-05-04 19:02 | 32.66281 | -16.79913 | 1480 ft | 216 kts | 192° |
| 2026-05-04 19:02 | 32.64717 | -16.79868 | 1682 ft | 240 kts | 173° |
| 2026-05-04 19:02 | 32.63026 | -16.79574 | 2249 ft | 244 kts | 173° |
| 2026-05-04 19:03 | 32.61315 | -16.79261 | 2767 ft | 256 kts | 172° |
| 2026-05-04 19:03 | 32.59527 | -16.78934 | 3410 ft | 264 kts | 172° |
| 2026-05-04 19:03 | 32.57711 | -16.78589 | 4319 ft | 264 kts | 168° |
| 2026-05-04 19:03 | 32.56071 | -16.77617 | 5177 ft | 270 kts | 137° |
| 2026-05-04 19:04 | 32.55072 | -16.75729 | 5997 ft | 276 kts | 109° |
| 2026-05-04 19:04 | 32.54890 | -16.73459 | 6769 ft | 282 kts | 82° |
| 2026-05-04 19:04 | 32.55514 | -16.71250 | 7502 ft | 287 kts | 61° |
| 2026-05-04 19:04 | 32.56582 | -16.69235 | 8269 ft | 290 kts | 56° |
| 2026-05-04 19:05 | 32.57728 | -16.67252 | 9038 ft | 293 kts | 55° |
| 2026-05-04 19:05 | 32.58886 | -16.65248 | 9820 ft | 296 kts | 56° |
| 2026-05-04 19:05 | 32.60040 | -16.63199 | 10481 ft | 305 kts | 56° |
| 2026-05-04 19:05 | 32.61270 | -16.61032 | 10667 ft | 329 kts | 56° |
| 2026-05-04 19:06 | 32.62576 | -16.58697 | 10914 ft | 349 kts | 57° |
| 2026-05-04 19:06 | 32.63929 | -16.56262 | 11472 ft | 357 kts | 57° |
| 2026-05-04 19:06 | 32.65374 | -16.53841 | 12175 ft | 361 kts | 49° |
| 2026-05-04 19:06 | 32.67129 | -16.51701 | 12888 ft | 364 kts | 43° |
| 2026-05-04 19:07 | 32.68983 | -16.49633 | 13567 ft | 369 kts | 42° |
| 2026-05-04 19:07 | 32.70877 | -16.47555 | 14185 ft | 374 kts | 42° |
| 2026-05-04 19:07 | 32.72797 | -16.45437 | 14759 ft | 378 kts | 42° |
| 2026-05-04 19:07 | 32.74726 | -16.43287 | 15342 ft | 383 kts | 43° |
| 2026-05-04 19:08 | 32.76672 | -16.41098 | 15918 ft | 388 kts | 43° |
| 2026-05-04 19:08 | 32.78638 | -16.38870 | 16480 ft | 393 kts | 43° |
| 2026-05-04 19:08 | 32.80622 | -16.36612 | 17037 ft | 397 kts | 43° |
| 2026-05-04 19:08 | 32.82629 | -16.34319 | 17590 ft | 402 kts | 43° |
| 2026-05-04 19:09 | 32.84665 | -16.31990 | 18024 ft | 410 kts | 43° |
| 2026-05-04 19:09 | 32.86733 | -16.29620 | 18501 ft | 416 kts | 43° |
| 2026-05-04 19:09 | 32.88817 | -16.27231 | 19180 ft | 412 kts | 43° |
| 2026-05-04 19:09 | 32.90873 | -16.24870 | 19891 ft | 411 kts | 43° |
| 2026-05-04 19:10 | 32.92948 | -16.22488 | 20280 ft | 418 kts | 43° |
| 2026-05-04 19:10 | 32.95056 | -16.20066 | 20699 ft | 423 kts | 43° |
| 2026-05-04 19:10 | 32.97180 | -16.17624 | 21199 ft | 426 kts | 43° |
| 2026-05-04 19:10 | 32.99313 | -16.15170 | 21706 ft | 428 kts | 43° |
| 2026-05-04 19:11 | 33.01463 | -16.12695 | 22183 ft | 431 kts | 43° |
| 2026-05-04 19:11 | 33.03602 | -16.10231 | 22634 ft | 435 kts | 43° |
| 2026-05-04 19:11 | 33.05783 | -16.07716 | 23082 ft | 438 kts | 42° |
| 2026-05-04 19:11 | 33.07981 | -16.05180 | 23540 ft | 441 kts | 42° |
| 2026-05-04 19:12 | 33.10192 | -16.02627 | 23943 ft | 444 kts | 42° |
| 2026-05-04 19:12 | 33.14679 | -15.97440 | 24742 ft | 448 kts | 42° |
| 2026-05-04 19:12 | 33.16893 | -15.94878 | 25131 ft | 450 kts | 42° |
| 2026-05-04 19:13 | 33.19173 | -15.92238 | 25536 ft | 452 kts | 42° |
| 2026-05-04 19:13 | 33.21408 | -15.89647 | 25884 ft | 455 kts | 42° |
| 2026-05-04 19:13 | 33.23716 | -15.86971 | 26240 ft | 458 kts | 42° |
| 2026-05-04 19:13 | 33.26006 | -15.84311 | 26605 ft | 460 kts | 42° |
| 2026-05-04 19:14 | 33.28304 | -15.81642 | 26956 ft | 462 kts | 42° |
| 2026-05-04 19:14 | 33.30611 | -15.78960 | 27294 ft | 464 kts | 43° |
| 2026-05-04 19:14 | 33.32927 | -15.76264 | 27629 ft | 466 kts | 43° |
| 2026-05-04 19:14 | 33.35260 | -15.73547 | 27960 ft | 468 kts | 43° |
| 2026-05-04 19:15 | 33.37566 | -15.70859 | 28269 ft | 471 kts | 43° |
| 2026-05-04 19:15 | 33.39947 | -15.68083 | 28596 ft | 473 kts | 43° |
| 2026-05-04 19:15 | 33.42368 | -15.65501 | 28887 ft | 473 kts | 32° |
| 2026-05-04 19:15 | 33.45253 | -15.63640 | 29188 ft | 470 kts | 22° |
| 2026-05-04 19:16 | 33.48226 | -15.62017 | 29579 ft | 470 kts | 21° |
| 2026-05-04 19:16 | 33.51219 | -15.60404 | 29869 ft | 473 kts | 21° |
| 2026-05-04 19:16 | 33.54224 | -15.58770 | 30126 ft | 475 kts | 21° |
| 2026-05-04 19:16 | 33.57232 | -15.57110 | 30370 ft | 478 kts | 21° |
| 2026-05-04 19:17 | 33.60244 | -15.55423 | 30686 ft | 478 kts | 22° |
| 2026-05-04 19:17 | 33.63249 | -15.53723 | 31064 ft | 476 kts | 22° |
| 2026-05-04 19:17 | 33.66233 | -15.52026 | 31428 ft | 474 kts | 22° |
| 2026-05-04 19:17 | 33.69207 | -15.50331 | 31736 ft | 474 kts | 22° |
| 2026-05-04 19:18 | 33.72194 | -15.48628 | 32024 ft | 474 kts | 22° |
| 2026-05-04 19:18 | 33.75170 | -15.46931 | 32343 ft | 474 kts | 22° |
| 2026-05-04 19:18 | 33.78145 | -15.45234 | 32663 ft | 473 kts | 21° |
| 2026-05-04 19:18 | 33.81120 | -15.43536 | 32962 ft | 473 kts | 21° |
| 2026-05-04 19:19 | 33.84085 | -15.41843 | 33257 ft | 472 kts | 21° |
| 2026-05-04 19:19 | 33.87053 | -15.40148 | 33569 ft | 471 kts | 21° |
| 2026-05-04 19:19 | 33.89049 | -15.39007 | 33763 ft | 471 kts | 21° |
| 2026-05-04 19:19 | 33.92971 | -15.36763 | 34149 ft | 471 kts | 21° |
| 2026-05-04 19:20 | 33.94929 | -15.35643 | 34307 ft | 470 kts | 21° |
| 2026-05-04 19:20 | 33.97887 | -15.33948 | 34534 ft | 471 kts | 21° |
| 2026-05-04 19:20 | 34.00845 | -15.32252 | 34740 ft | 471 kts | 21° |
| 2026-05-04 19:20 | 34.03802 | -15.30556 | 34951 ft | 471 kts | 21° |
| 2026-05-04 19:21 | 34.06762 | -15.28856 | 35143 ft | 472 kts | 21° |
| 2026-05-04 19:21 | 34.09725 | -15.27152 | 35371 ft | 472 kts | 21° |
| 2026-05-04 19:21 | 34.12685 | -15.25449 | 35597 ft | 471 kts | 21° |
| 2026-05-04 19:21 | 34.15649 | -15.23743 | 35796 ft | 471 kts | 21° |
| 2026-05-04 19:22 | 34.18605 | -15.22041 | 35972 ft | 472 kts | 21° |
| 2026-05-04 19:22 | 34.21558 | -15.20313 | 36140 ft | 474 kts | 23° |
| 2026-05-04 19:22 | 34.24469 | -15.18385 | 36150 ft | 478 kts | 26° |
| 2026-05-04 19:23 | 34.30194 | -15.14293 | 36180 ft | 477 kts | 27° |
| 2026-05-04 19:23 | 34.35844 | -15.10184 | 36160 ft | 471 kts | 27° |
| 2026-05-04 19:24 | 34.41455 | -15.06148 | 36162 ft | 468 kts | 26° |
| 2026-05-04 19:24 | 34.47053 | -15.02152 | 36162 ft | 466 kts | 26° |
| 2026-05-04 19:25 | 34.52647 | -14.98163 | 36183 ft | 470 kts | 26° |
| 2026-05-04 19:25 | 34.58328 | -14.94108 | 36183 ft | 476 kts | 26° |
| 2026-05-04 19:26 | 34.64056 | -14.90007 | 36177 ft | 479 kts | 26° |
| 2026-05-04 19:26 | 34.69804 | -14.85882 | 36170 ft | 481 kts | 27° |
| 2026-05-04 19:27 | 34.75563 | -14.81743 | 36172 ft | 481 kts | 27° |
| 2026-05-04 19:27 | 34.81306 | -14.77608 | 36172 ft | 479 kts | 27° |
| 2026-05-04 19:28 | 34.86994 | -14.73507 | 36186 ft | 477 kts | 26° |
| 2026-05-04 19:28 | 34.92698 | -14.69388 | 36173 ft | 476 kts | 26° |
| 2026-05-04 19:29 | 34.98385 | -14.65275 | 36174 ft | 474 kts | 26° |
| 2026-05-04 19:29 | 35.04046 | -14.61174 | 36176 ft | 472 kts | 26° |
| 2026-05-04 19:30 | 35.09689 | -14.57080 | 36178 ft | 471 kts | 26° |
| 2026-05-04 19:30 | 35.15325 | -14.52985 | 36181 ft | 471 kts | 26° |
| 2026-05-04 19:31 | 35.20958 | -14.48885 | 36183 ft | 472 kts | 26° |
| 2026-05-04 19:31 | 35.26595 | -14.44776 | 36181 ft | 473 kts | 26° |
| 2026-05-04 19:32 | 35.32253 | -14.40644 | 36182 ft | 474 kts | 26° |
| 2026-05-04 19:32 | 35.37921 | -14.36498 | 36181 ft | 475 kts | 26° |
| 2026-05-04 19:33 | 35.43603 | -14.32335 | 36188 ft | 477 kts | 26° |
| 2026-05-04 19:33 | 35.49300 | -14.28153 | 36188 ft | 478 kts | 26° |
| 2026-05-04 19:34 | 35.55015 | -14.23951 | 36186 ft | 479 kts | 26° |
| 2026-05-04 19:34 | 35.60738 | -14.19736 | 36181 ft | 480 kts | 26° |
| 2026-05-04 19:35 | 35.66464 | -14.15512 | 36208 ft | 480 kts | 26° |
| 2026-05-04 19:35 | 35.72198 | -14.11274 | 36192 ft | 481 kts | 26° |
| 2026-05-04 19:36 | 35.77939 | -14.07025 | 36196 ft | 481 kts | 26° |
| 2026-05-04 19:36 | 35.83678 | -14.02770 | 36182 ft | 482 kts | 26° |
| 2026-05-04 19:37 | 35.89414 | -13.98510 | 36182 ft | 481 kts | 26° |
| 2026-05-04 19:37 | 35.95151 | -13.94241 | 36201 ft | 481 kts | 26° |
| 2026-05-04 19:38 | 36.00881 | -13.89970 | 36185 ft | 481 kts | 26° |
| 2026-05-04 19:38 | 36.06600 | -13.85700 | 36186 ft | 480 kts | 26° |
| 2026-05-04 19:39 | 36.12311 | -13.81429 | 36183 ft | 479 kts | 26° |
| 2026-05-04 19:39 | 36.17968 | -13.77192 | 36185 ft | 478 kts | 26° |
| 2026-05-04 19:40 | 36.23654 | -13.72925 | 36189 ft | 478 kts | 26° |
| 2026-05-04 19:40 | 36.29364 | -13.68632 | 36182 ft | 477 kts | 26° |
| 2026-05-04 19:41 | 36.34997 | -13.64391 | 36190 ft | 476 kts | 26° |
| 2026-05-04 19:41 | 36.40644 | -13.60131 | 36183 ft | 475 kts | 26° |
| 2026-05-04 19:42 | 36.46290 | -13.55864 | 36211 ft | 474 kts | 26° |
| 2026-05-04 19:42 | 36.51927 | -13.51598 | 36191 ft | 474 kts | 26° |
| 2026-05-04 19:43 | 36.57558 | -13.47327 | 36174 ft | 474 kts | 25° |
| 2026-05-04 19:43 | 36.63182 | -13.43064 | 36181 ft | 473 kts | 25° |
| 2026-05-04 19:44 | 36.68864 | -13.38968 | 36182 ft | 471 kts | 23° |
| 2026-05-04 19:44 | 36.74567 | -13.34948 | 36193 ft | 472 kts | 23° |
| 2026-05-04 19:45 | 36.80280 | -13.30897 | 36187 ft | 472 kts | 24° |
| 2026-05-04 19:45 | 36.85978 | -13.26826 | 36181 ft | 472 kts | 24° |
| 2026-05-04 19:46 | 36.91676 | -13.22737 | 36183 ft | 472 kts | 24° |
| 2026-05-04 19:46 | 36.97372 | -13.18642 | 36182 ft | 472 kts | 24° |
| 2026-05-04 19:47 | 37.03032 | -13.14566 | 36185 ft | 473 kts | 24° |
| 2026-05-04 19:47 | 37.08734 | -13.10453 | 36187 ft | 473 kts | 23° |
| 2026-05-04 19:48 | 37.14431 | -13.06337 | 36179 ft | 473 kts | 23° |
| 2026-05-04 19:48 | 37.20129 | -13.02213 | 36182 ft | 473 kts | 24° |
| 2026-05-04 19:49 | 37.25824 | -12.98084 | 36198 ft | 473 kts | 23° |
| 2026-05-04 19:49 | 37.31521 | -12.93946 | 36186 ft | 473 kts | 23° |
| 2026-05-04 19:50 | 37.37212 | -12.89805 | 36180 ft | 473 kts | 23° |
| 2026-05-04 19:50 | 37.42898 | -12.85661 | 36183 ft | 472 kts | 23° |
| 2026-05-04 19:51 | 37.48584 | -12.81509 | 36182 ft | 472 kts | 23° |
| 2026-05-04 19:51 | 37.54265 | -12.77354 | 36180 ft | 472 kts | 23° |
| 2026-05-04 19:52 | 37.59939 | -12.73196 | 36182 ft | 472 kts | 23° |
| 2026-05-04 19:52 | 37.65613 | -12.69030 | 36182 ft | 472 kts | 23° |
| 2026-05-04 19:53 | 37.71285 | -12.64858 | 36189 ft | 472 kts | 23° |
| 2026-05-04 19:53 | 37.76954 | -12.60683 | 36181 ft | 471 kts | 23° |
| 2026-05-04 19:54 | 37.82618 | -12.56502 | 36174 ft | 471 kts | 23° |
| 2026-05-04 19:54 | 37.88280 | -12.52316 | 36177 ft | 471 kts | 23° |
| 2026-05-04 19:55 | 37.93940 | -12.48123 | 36180 ft | 471 kts | 23° |
| 2026-05-04 19:55 | 37.99602 | -12.43922 | 36206 ft | 471 kts | 24° |
| 2026-05-04 19:56 | 38.05261 | -12.39716 | 36201 ft | 472 kts | 24° |
| 2026-05-04 19:56 | 38.10921 | -12.35501 | 36184 ft | 472 kts | 24° |
| 2026-05-04 19:57 | 38.16547 | -12.31303 | 36176 ft | 471 kts | 24° |
| 2026-05-04 19:57 | 38.22230 | -12.27055 | 36179 ft | 471 kts | 24° |
| 2026-05-04 19:58 | 38.27835 | -12.22858 | 36191 ft | 470 kts | 25° |
| 2026-05-04 19:58 | 38.33504 | -12.18605 | 36179 ft | 470 kts | 25° |
| 2026-05-04 19:59 | 38.39091 | -12.14406 | 36174 ft | 469 kts | 25° |
| 2026-05-04 19:59 | 38.44697 | -12.10185 | 36175 ft | 467 kts | 25° |
| 2026-05-04 20:00 | 38.50292 | -12.05965 | 36209 ft | 467 kts | 25° |
| 2026-05-04 20:00 | 38.55881 | -12.01742 | 36175 ft | 466 kts | 24° |
| 2026-05-04 20:01 | 38.61456 | -11.97521 | 36179 ft | 466 kts | 24° |
| 2026-05-04 20:01 | 38.67028 | -11.93295 | 36176 ft | 465 kts | 24° |
| 2026-05-04 20:02 | 38.72593 | -11.89067 | 36174 ft | 465 kts | 24° |
| 2026-05-04 20:02 | 38.78160 | -11.84830 | 36182 ft | 466 kts | 24° |
| 2026-05-04 20:03 | 38.83729 | -11.80584 | 36178 ft | 466 kts | 24° |
| 2026-05-04 20:03 | 38.89298 | -11.76329 | 36172 ft | 466 kts | 24° |
| 2026-05-04 20:04 | 38.94866 | -11.72067 | 36169 ft | 466 kts | 24° |
| 2026-05-04 20:04 | 39.00432 | -11.67799 | 36192 ft | 466 kts | 24° |
| 2026-05-04 20:05 | 39.05998 | -11.63522 | 36173 ft | 466 kts | 24° |
| 2026-05-04 20:05 | 39.11574 | -11.59231 | 36164 ft | 467 kts | 24° |
| 2026-05-04 20:06 | 39.16202 | -11.55662 | 36166 ft | 467 kts | 24° |
| 2026-05-04 20:06 | 39.21773 | -11.51360 | 36165 ft | 467 kts | 24° |
| 2026-05-04 20:07 | 39.27340 | -11.47052 | 36167 ft | 468 kts | 23° |
| 2026-05-04 20:07 | 39.32915 | -11.42730 | 36168 ft | 467 kts | 23° |
| 2026-05-04 20:08 | 39.38492 | -11.38398 | 36162 ft | 467 kts | 23° |
| 2026-05-04 20:08 | 39.44053 | -11.34071 | 36167 ft | 466 kts | 23° |
| 2026-05-04 20:09 | 39.49609 | -11.29739 | 36194 ft | 467 kts | 23° |
| 2026-05-04 20:09 | 39.55168 | -11.25398 | 36169 ft | 467 kts | 23° |
| 2026-05-04 20:10 | 39.60729 | -11.21046 | 36152 ft | 467 kts | 23° |
| 2026-05-04 20:10 | 39.66284 | -11.16690 | 36153 ft | 466 kts | 23° |
| 2026-05-04 20:11 | 39.71827 | -11.12335 | 36165 ft | 466 kts | 23° |
| 2026-05-04 20:11 | 39.77370 | -11.07973 | 36164 ft | 466 kts | 23° |
| 2026-05-04 20:12 | 39.82914 | -11.03602 | 36157 ft | 465 kts | 23° |
| 2026-05-04 20:12 | 39.88408 | -10.99260 | 36157 ft | 465 kts | 23° |
| 2026-05-04 20:13 | 39.93930 | -10.94889 | 36157 ft | 464 kts | 23° |
| 2026-05-04 20:13 | 39.99446 | -10.90515 | 36165 ft | 465 kts | 23° |
| 2026-05-04 20:14 | 40.04975 | -10.86123 | 36160 ft | 465 kts | 23° |
| 2026-05-04 20:14 | 40.10498 | -10.81726 | 36149 ft | 465 kts | 23° |
| 2026-05-04 20:15 | 40.16015 | -10.77325 | 36149 ft | 464 kts | 23° |
| 2026-05-04 20:15 | 40.21525 | -10.72921 | 36150 ft | 464 kts | 23° |
| 2026-05-04 20:16 | 40.27042 | -10.68504 | 36151 ft | 464 kts | 23° |
| 2026-05-04 20:16 | 40.32550 | -10.64085 | 36151 ft | 465 kts | 23° |
| 2026-05-04 20:17 | 40.38065 | -10.59652 | 36150 ft | 465 kts | 23° |
| 2026-05-04 20:17 | 40.43581 | -10.55209 | 36176 ft | 465 kts | 24° |
| 2026-05-04 20:18 | 40.49101 | -10.50756 | 36154 ft | 466 kts | 24° |
| 2026-05-04 20:18 | 40.54626 | -10.46287 | 36141 ft | 466 kts | 24° |
| 2026-05-04 20:19 | 40.60153 | -10.41809 | 36141 ft | 466 kts | 24° |
| 2026-05-04 20:19 | 40.65672 | -10.37329 | 36137 ft | 466 kts | 24° |
| 2026-05-04 20:20 | 40.71186 | -10.32844 | 36141 ft | 466 kts | 24° |
| 2026-05-04 20:20 | 40.76701 | -10.28349 | 36139 ft | 465 kts | 24° |
| 2026-05-04 20:21 | 40.82199 | -10.23858 | 36132 ft | 464 kts | 24° |
| 2026-05-04 20:21 | 40.90435 | -10.17144 | 36167 ft | 463 kts | 24° |
| 2026-05-04 20:22 | 40.95970 | -10.12824 | 36138 ft | 462 kts | 23° |
| 2026-05-04 20:22 | 41.01477 | -10.08566 | 36133 ft | 461 kts | 23° |
| 2026-05-04 20:23 | 41.07002 | -10.04266 | 36133 ft | 461 kts | 23° |
| 2026-05-04 20:23 | 41.12519 | -9.99946 | 36134 ft | 460 kts | 23° |
| 2026-05-04 20:24 | 41.18032 | -9.95617 | 36128 ft | 460 kts | 24° |
| 2026-05-04 20:24 | 41.23535 | -9.91286 | 36126 ft | 460 kts | 24° |
| 2026-05-04 20:25 | 41.29036 | -9.86949 | 36129 ft | 459 kts | 24° |
| 2026-05-04 20:25 | 41.34535 | -9.82605 | 36135 ft | 459 kts | 24° |
| 2026-05-04 20:26 | 41.40033 | -9.78255 | 36130 ft | 460 kts | 25° |
| 2026-05-04 20:26 | 41.45538 | -9.73889 | 36126 ft | 460 kts | 25° |
| 2026-05-04 20:27 | 41.51036 | -9.69519 | 36122 ft | 460 kts | 25° |
| 2026-05-04 20:27 | 41.56539 | -9.65137 | 36121 ft | 460 kts | 25° |
| 2026-05-04 20:28 | 41.62031 | -9.60756 | 36129 ft | 460 kts | 25° |
| 2026-05-04 20:28 | 41.67528 | -9.56361 | 36118 ft | 460 kts | 25° |
| 2026-05-04 20:29 | 41.73014 | -9.51966 | 36112 ft | 460 kts | 25° |
| 2026-05-04 20:29 | 41.78497 | -9.47565 | 36111 ft | 459 kts | 25° |
| 2026-05-04 20:30 | 41.83968 | -9.43164 | 36116 ft | 459 kts | 26° |
| 2026-05-04 20:30 | 41.89447 | -9.38748 | 36115 ft | 459 kts | 26° |
| 2026-05-04 20:31 | 41.94922 | -9.34339 | 36113 ft | 458 kts | 26° |
| 2026-05-04 20:31 | 42.00405 | -9.29981 | 36109 ft | 458 kts | 26° |
| 2026-05-04 20:32 | 42.05894 | -9.25624 | 36120 ft | 458 kts | 26° |
| 2026-05-04 20:32 | 42.11376 | -9.21255 | 36105 ft | 458 kts | 26° |
| 2026-05-04 20:33 | 42.16854 | -9.16876 | 36104 ft | 458 kts | 26° |
| 2026-05-04 20:33 | 42.22288 | -9.12520 | 36103 ft | 458 kts | 26° |
| 2026-05-04 20:34 | 42.27764 | -9.08123 | 36113 ft | 458 kts | 27° |
| 2026-05-04 20:34 | 42.33239 | -9.03717 | 36103 ft | 458 kts | 27° |
| 2026-05-04 20:35 | 42.38717 | -8.99299 | 36091 ft | 459 kts | 27° |
| 2026-05-04 20:35 | 42.44195 | -8.94872 | 36091 ft | 459 kts | 27° |
| 2026-05-04 20:36 | 42.49678 | -8.90433 | 36090 ft | 459 kts | 27° |
| 2026-05-04 20:36 | 42.55156 | -8.85988 | 36087 ft | 459 kts | 27° |
| 2026-05-04 20:37 | 42.60641 | -8.81528 | 36086 ft | 459 kts | 27° |
| 2026-05-04 20:37 | 42.66124 | -8.77061 | 36088 ft | 460 kts | 27° |
| 2026-05-04 20:38 | 42.71601 | -8.72589 | 36099 ft | 460 kts | 27° |
| 2026-05-04 20:38 | 42.77089 | -8.68100 | 36094 ft | 460 kts | 27° |
| 2026-05-04 20:39 | 42.82577 | -8.63600 | 36091 ft | 460 kts | 27° |
| 2026-05-04 20:39 | 42.88068 | -8.59089 | 36090 ft | 461 kts | 27° |
| 2026-05-04 20:40 | 42.93554 | -8.54572 | 36100 ft | 461 kts | 28° |
| 2026-05-04 20:40 | 42.99044 | -8.50042 | 36090 ft | 461 kts | 28° |
| 2026-05-04 20:41 | 43.04525 | -8.45511 | 36085 ft | 460 kts | 28° |
| 2026-05-04 20:41 | 43.09997 | -8.40977 | 36098 ft | 460 kts | 28° |
| 2026-05-04 20:42 | 43.15466 | -8.36436 | 36088 ft | 460 kts | 28° |
| 2026-05-04 20:42 | 43.20932 | -8.31887 | 36074 ft | 459 kts | 28° |
| 2026-05-04 20:43 | 43.26391 | -8.27335 | 36078 ft | 459 kts | 28° |
| 2026-05-04 20:43 | 43.31806 | -8.22810 | 36074 ft | 459 kts | 28° |
| 2026-05-04 20:44 | 43.37260 | -8.18244 | 36086 ft | 459 kts | 28° |
| 2026-05-04 20:44 | 43.42707 | -8.13673 | 36077 ft | 459 kts | 29° |
| 2026-05-04 20:45 | 43.48150 | -8.09095 | 36076 ft | 458 kts | 29° |
| 2026-05-04 20:45 | 43.53587 | -8.04514 | 36086 ft | 458 kts | 29° |
| 2026-05-04 20:46 | 43.59020 | -7.99926 | 36079 ft | 458 kts | 29° |
| 2026-05-04 20:46 | 43.64451 | -7.95329 | 36068 ft | 458 kts | 29° |
| 2026-05-04 20:47 | 43.69884 | -7.90720 | 36066 ft | 457 kts | 29° |
| 2026-05-04 20:47 | 43.75295 | -7.86121 | 36062 ft | 457 kts | 29° |
| 2026-05-04 20:48 | 43.80707 | -7.81511 | 36061 ft | 456 kts | 30° |
| 2026-05-04 20:48 | 43.86099 | -7.76907 | 36055 ft | 455 kts | 30° |
| 2026-05-04 20:49 | 43.91494 | -7.72292 | 36056 ft | 455 kts | 30° |
| 2026-05-04 20:49 | 43.96869 | -7.67684 | 36061 ft | 454 kts | 30° |
| 2026-05-04 20:50 | 44.02249 | -7.63061 | 36056 ft | 454 kts | 30° |
| 2026-05-04 20:50 | 44.07616 | -7.58440 | 36050 ft | 454 kts | 30° |
| 2026-05-04 20:51 | 44.12983 | -7.53834 | 36040 ft | 454 kts | 30° |
| 2026-05-04 20:51 | 44.18349 | -7.49187 | 36058 ft | 454 kts | 30° |
| 2026-05-04 20:52 | 44.23702 | -7.44533 | 36043 ft | 454 kts | 30° |
| 2026-05-04 20:52 | 44.29069 | -7.39866 | 36038 ft | 454 kts | 30° |
| 2026-05-04 20:53 | 44.33525 | -7.35988 | 36035 ft | 455 kts | 30° |
| 2026-05-04 20:53 | 44.38891 | -7.31308 | 36047 ft | 455 kts | 31° |
| 2026-05-04 20:54 | 44.45130 | -7.25855 | 36034 ft | 455 kts | 31° |
| 2026-05-04 20:54 | 44.49626 | -7.21916 | 36029 ft | 455 kts | 31° |
| 2026-05-04 20:55 | 44.54989 | -7.17211 | 36031 ft | 455 kts | 31° |
| 2026-05-04 20:55 | 44.60350 | -7.12489 | 36036 ft | 455 kts | 31° |
| 2026-05-04 20:56 | 44.65714 | -7.07760 | 36027 ft | 455 kts | 31° |
| 2026-05-04 20:56 | 44.71074 | -7.03025 | 36030 ft | 455 kts | 31° |
| 2026-05-04 20:57 | 44.76400 | -6.98307 | 36026 ft | 456 kts | 31° |
| 2026-05-04 20:57 | 44.81768 | -6.93543 | 36027 ft | 456 kts | 31° |
| 2026-05-04 20:58 | 44.87168 | -6.88867 | 36024 ft | 455 kts | 29° |
| 2026-05-04 20:58 | 44.92653 | -6.84394 | 36016 ft | 455 kts | 29° |
| 2026-05-04 20:59 | 44.98132 | -6.79915 | 36024 ft | 455 kts | 29° |
| 2026-05-04 20:59 | 45.03618 | -6.75447 | 36027 ft | 455 kts | 29° |
| 2026-05-04 21:00 | 45.09088 | -6.70938 | 36023 ft | 455 kts | 30° |
| 2026-05-04 21:00 | 45.14560 | -6.66401 | 36032 ft | 455 kts | 30° |
| 2026-05-04 21:01 | 45.20019 | -6.61863 | 36027 ft | 455 kts | 30° |
| 2026-05-04 21:01 | 45.25486 | -6.57310 | 36024 ft | 455 kts | 30° |
| 2026-05-04 21:02 | 45.30940 | -6.52735 | 36014 ft | 455 kts | 30° |
| 2026-05-04 21:02 | 45.36371 | -6.48129 | 36013 ft | 455 kts | 30° |
| 2026-05-04 21:03 | 45.41832 | -6.43591 | 36025 ft | 454 kts | 30° |
| 2026-05-04 21:03 | 45.47289 | -6.39035 | 36026 ft | 455 kts | 30° |
| 2026-05-04 21:04 | 45.52741 | -6.34460 | 36019 ft | 454 kts | 30° |
| 2026-05-04 21:04 | 45.58185 | -6.29869 | 36024 ft | 454 kts | 30° |
| 2026-05-04 21:05 | 45.63620 | -6.25272 | 36032 ft | 454 kts | 30° |
| 2026-05-04 21:05 | 45.69054 | -6.20641 | 36019 ft | 454 kts | 30° |
| 2026-05-04 21:06 | 45.74486 | -6.16037 | 36017 ft | 454 kts | 30° |
| 2026-05-04 21:06 | 45.79918 | -6.11419 | 36023 ft | 454 kts | 30° |
| 2026-05-04 21:07 | 45.85344 | -6.06790 | 36032 ft | 454 kts | 31° |
| 2026-05-04 21:07 | 45.90771 | -6.02146 | 36020 ft | 454 kts | 31° |
| 2026-05-04 21:08 | 45.96153 | -5.97530 | 36021 ft | 454 kts | 31° |
| 2026-05-04 21:08 | 46.01606 | -5.92843 | 36019 ft | 453 kts | 31° |
| 2026-05-04 21:09 | 46.06978 | -5.88214 | 36021 ft | 453 kts | 31° |
| 2026-05-04 21:09 | 46.12382 | -5.83547 | 36024 ft | 453 kts | 31° |
| 2026-05-04 21:10 | 46.17788 | -5.78868 | 36018 ft | 453 kts | 31° |
| 2026-05-04 21:10 | 46.23186 | -5.74185 | 36021 ft | 453 kts | 31° |
| 2026-05-04 21:11 | 46.28545 | -5.69424 | 36024 ft | 452 kts | 30° |
| 2026-05-04 21:11 | 46.33972 | -5.64839 | 36023 ft | 452 kts | 31° |
| 2026-05-04 21:12 | 46.39356 | -5.60120 | 36012 ft | 452 kts | 32° |
| 2026-05-04 21:12 | 46.44736 | -5.55381 | 36023 ft | 452 kts | 32° |
| 2026-05-04 21:13 | 46.50115 | -5.50651 | 36020 ft | 453 kts | 31° |
| 2026-05-04 21:13 | 46.55502 | -5.45908 | 36022 ft | 453 kts | 32° |
| 2026-05-04 21:14 | 46.60893 | -5.41165 | 36021 ft | 453 kts | 32° |
| 2026-05-04 21:14 | 46.66278 | -5.36408 | 36021 ft | 453 kts | 32° |
| 2026-05-04 21:15 | 46.71668 | -5.31638 | 36018 ft | 453 kts | 32° |
| 2026-05-04 21:15 | 46.77059 | -5.26854 | 36010 ft | 453 kts | 32° |
| 2026-05-04 21:16 | 46.82439 | -5.22069 | 36023 ft | 453 kts | 32° |
| 2026-05-04 21:16 | 46.87832 | -5.17269 | 36029 ft | 453 kts | 32° |
| 2026-05-04 21:17 | 46.93211 | -5.12453 | 36018 ft | 454 kts | 32° |
| 2026-05-04 21:17 | 46.98597 | -5.07626 | 36015 ft | 454 kts | 32° |
| 2026-05-04 21:18 | 47.03978 | -5.02795 | 36021 ft | 453 kts | 32° |
| 2026-05-04 21:18 | 47.09353 | -4.97957 | 36023 ft | 453 kts | 32° |
| 2026-05-04 21:19 | 47.14723 | -4.93136 | 35992 ft | 452 kts | 33° |
| 2026-05-04 21:19 | 47.20057 | -4.88248 | 36014 ft | 452 kts | 33° |
| 2026-05-04 21:20 | 47.25418 | -4.83406 | 36014 ft | 452 kts | 32° |
| 2026-05-04 21:20 | 47.30772 | -4.78557 | 36013 ft | 452 kts | 33° |
| 2026-05-04 21:21 | 47.36122 | -4.73687 | 36014 ft | 452 kts | 33° |
| 2026-05-04 21:21 | 47.41433 | -4.68837 | 36014 ft | 452 kts | 33° |
| 2026-05-04 21:22 | 47.46778 | -4.63942 | 36009 ft | 452 kts | 33° |
| 2026-05-04 21:22 | 47.52122 | -4.59038 | 36005 ft | 452 kts | 33° |
| 2026-05-04 21:23 | 47.57461 | -4.54127 | 36004 ft | 452 kts | 33° |
| 2026-05-04 21:23 | 47.62830 | -4.49175 | 36005 ft | 452 kts | 33° |
| 2026-05-04 21:24 | 47.68131 | -4.44274 | 36003 ft | 452 kts | 33° |
| 2026-05-04 21:24 | 47.73460 | -4.39335 | 35999 ft | 451 kts | 33° |
| 2026-05-04 21:25 | 47.78787 | -4.34387 | 36004 ft | 451 kts | 33° |
| 2026-05-04 21:25 | 47.84371 | -4.30148 | 36007 ft | 453 kts | 18° |
| 2026-05-04 21:26 | 47.90434 | -4.27568 | 36018 ft | 453 kts | 16° |
| 2026-05-04 21:26 | 47.96517 | -4.25086 | 36023 ft | 453 kts | 16° |
| 2026-05-04 21:27 | 48.02575 | -4.22541 | 36014 ft | 453 kts | 17° |
| 2026-05-04 21:27 | 48.08632 | -4.19947 | 36022 ft | 452 kts | 17° |
| 2026-05-04 21:28 | 48.14680 | -4.17340 | 36018 ft | 452 kts | 17° |
| 2026-05-04 21:28 | 48.20714 | -4.14711 | 36022 ft | 452 kts | 17° |
| 2026-05-04 21:29 | 48.26755 | -4.12107 | 36019 ft | 451 kts | 17° |
| 2026-05-04 21:29 | 48.32787 | -4.09500 | 36019 ft | 451 kts | 17° |
| 2026-05-04 21:30 | 48.38805 | -4.06876 | 36019 ft | 450 kts | 17° |
| 2026-05-04 21:30 | 48.44805 | -4.04263 | 36019 ft | 449 kts | 17° |
| 2026-05-04 21:31 | 48.53793 | -4.00329 | 36019 ft | 448 kts | 17° |
| 2026-05-04 21:32 | 48.59765 | -3.97707 | 35994 ft | 447 kts | 17° |
| 2026-05-04 21:32 | 48.65733 | -3.95080 | 35994 ft | 446 kts | 17° |
| 2026-05-04 21:33 | 48.71691 | -3.92452 | 36000 ft | 446 kts | 17° |
| 2026-05-04 21:33 | 48.77644 | -3.89817 | 36000 ft | 446 kts | 17° |
| 2026-05-04 21:34 | 48.83606 | -3.87218 | 36014 ft | 446 kts | 17° |
| 2026-05-04 21:34 | 48.89565 | -3.84546 | 36022 ft | 447 kts | 17° |
| 2026-05-04 21:35 | 48.95507 | -3.81877 | 36023 ft | 449 kts | 17° |
| 2026-05-04 21:35 | 49.01681 | -3.80444 | 36038 ft | 451 kts | 3° |
| 2026-05-04 21:36 | 49.07958 | -3.80155 | 36020 ft | 452 kts | 2° |
| 2026-05-04 21:36 | 49.14261 | -3.79871 | 36027 ft | 453 kts | 2° |
| 2026-05-04 21:37 | 49.20566 | -3.79518 | 36030 ft | 454 kts | 3° |
| 2026-05-04 21:37 | 49.26879 | -3.79122 | 36030 ft | 453 kts | 3° |
| 2026-05-04 21:38 | 49.33173 | -3.78742 | 36018 ft | 452 kts | 3° |
| 2026-05-04 21:38 | 49.39453 | -3.78360 | 36023 ft | 451 kts | 3° |
| 2026-05-04 21:39 | 49.45715 | -3.77973 | 36025 ft | 449 kts | 3° |
| 2026-05-04 21:39 | 49.51955 | -3.77588 | 36026 ft | 448 kts | 3° |
| 2026-05-04 21:40 | 49.57126 | -3.77268 | 36028 ft | 447 kts | 3° |
| 2026-05-04 21:40 | 49.63325 | -3.76884 | 36023 ft | 445 kts | 3° |
| 2026-05-04 21:41 | 49.69512 | -3.76500 | 36026 ft | 444 kts | 3° |
| 2026-05-04 21:41 | 49.75674 | -3.75878 | 36023 ft | 443 kts | 5° |
| 2026-05-04 21:42 | 49.81817 | -3.75143 | 36030 ft | 443 kts | 6° |
| 2026-05-04 21:42 | 49.87960 | -3.74343 | 36027 ft | 443 kts | 5° |
| 2026-05-04 21:43 | 49.94105 | -3.73583 | 36028 ft | 443 kts | 5° |
| 2026-05-04 21:43 | 50.00251 | -3.72820 | 36022 ft | 443 kts | 5° |
| 2026-05-04 21:44 | 50.06405 | -3.72101 | 36029 ft | 444 kts | 5° |
| 2026-05-04 21:44 | 50.12564 | -3.71373 | 36027 ft | 444 kts | 5° |
| 2026-05-04 21:45 | 50.18719 | -3.70635 | 36029 ft | 444 kts | 5° |
| 2026-05-04 21:45 | 50.24883 | -3.69891 | 36028 ft | 444 kts | 5° |
| 2026-05-04 21:46 | 50.31047 | -3.69145 | 36031 ft | 444 kts | 5° |
| 2026-05-04 21:46 | 50.37210 | -3.68379 | 36017 ft | 444 kts | 5° |
| 2026-05-04 21:47 | 50.43368 | -3.67623 | 36032 ft | 444 kts | 7° |
| 2026-05-04 21:47 | 50.49492 | -3.66419 | 36034 ft | 443 kts | 8° |
| 2026-05-04 21:48 | 50.55612 | -3.65199 | 36030 ft | 444 kts | 8° |
| 2026-05-04 21:48 | 50.61747 | -3.64029 | 36028 ft | 444 kts | 8° |
| 2026-05-04 21:49 | 50.67817 | -3.62875 | 36026 ft | 444 kts | 8° |
| 2026-05-04 21:49 | 50.73837 | -3.61723 | 36024 ft | 444 kts | 8° |
| 2026-05-04 21:50 | 50.79969 | -3.60544 | 36024 ft | 444 kts | 8° |
| 2026-05-04 21:50 | 50.86085 | -3.59365 | 36028 ft | 444 kts | 8° |
| 2026-05-04 21:51 | 50.92159 | -3.58190 | 36033 ft | 444 kts | 8° |
| 2026-05-04 21:51 | 50.98286 | -3.57002 | 36037 ft | 444 kts | 8° |
| 2026-05-04 21:52 | 51.04369 | -3.55819 | 36046 ft | 444 kts | 8° |
| 2026-05-04 21:52 | 51.10354 | -3.54653 | 36047 ft | 444 kts | 8° |
| 2026-05-04 21:53 | 51.16471 | -3.53457 | 36040 ft | 444 kts | 8° |
| 2026-05-04 21:53 | 51.22615 | -3.52253 | 36044 ft | 444 kts | 8° |
| 2026-05-04 21:54 | 51.28652 | -3.51070 | 36044 ft | 444 kts | 8° |
| 2026-05-04 21:54 | 51.34783 | -3.49868 | 35770 ft | 446 kts | 8° |
| 2026-05-04 21:54 | 51.37841 | -3.49267 | 35467 ft | 440 kts | 8° |
| 2026-05-04 21:55 | 51.40859 | -3.48674 | 35063 ft | 436 kts | 8° |
| 2026-05-04 21:55 | 51.43778 | -3.48099 | 34701 ft | 432 kts | 8° |
| 2026-05-04 21:55 | 51.46707 | -3.47521 | 34316 ft | 429 kts | 8° |
| 2026-05-04 21:55 | 51.49660 | -3.46938 | 33924 ft | 426 kts | 8° |
| 2026-05-04 21:56 | 51.52592 | -3.46358 | 33458 ft | 423 kts | 8° |
| 2026-05-04 21:56 | 51.55498 | -3.45778 | 33081 ft | 419 kts | 8° |
| 2026-05-04 21:56 | 51.58380 | -3.45206 | 32689 ft | 415 kts | 8° |
| 2026-05-04 21:56 | 51.61237 | -3.44631 | 32308 ft | 412 kts | 8° |
| 2026-05-04 21:57 | 51.64065 | -3.44050 | 31930 ft | 408 kts | 8° |
| 2026-05-04 21:57 | 51.66839 | -3.43502 | 31569 ft | 406 kts | 8° |
| 2026-05-04 21:57 | 51.69621 | -3.42972 | 31196 ft | 403 kts | 7° |
| 2026-05-04 21:57 | 51.72398 | -3.42423 | 30838 ft | 400 kts | 8° |
| 2026-05-04 21:58 | 51.75147 | -3.41872 | 30472 ft | 397 kts | 7° |
| 2026-05-04 21:58 | 51.77880 | -3.41329 | 30112 ft | 395 kts | 7° |
| 2026-05-04 21:58 | 51.80129 | -3.40931 | 29779 ft | 392 kts | 7° |
| 2026-05-04 21:58 | 51.82829 | -3.40372 | 29369 ft | 389 kts | 8° |
| 2026-05-04 21:59 | 51.85491 | -3.39827 | 28976 ft | 386 kts | 7° |
| 2026-05-04 21:59 | 51.88101 | -3.39287 | 28600 ft | 383 kts | 7° |
| 2026-05-04 21:59 | 51.90737 | -3.38741 | 28231 ft | 380 kts | 7° |
| 2026-05-04 21:59 | 51.93362 | -3.38230 | 27856 ft | 378 kts | 5° |
| 2026-05-04 22:00 | 51.95974 | -3.37932 | 27486 ft | 375 kts | 2° |
| 2026-05-04 22:00 | 51.98574 | -3.37753 | 27129 ft | 373 kts | 1° |
| 2026-05-04 22:00 | 52.01162 | -3.37606 | 26763 ft | 371 kts | 2° |
| 2026-05-04 22:00 | 52.03727 | -3.37459 | 26418 ft | 369 kts | 2° |
| 2026-05-04 22:01 | 52.06257 | -3.37302 | 26070 ft | 367 kts | 2° |
| 2026-05-04 22:01 | 52.08801 | -3.37133 | 25717 ft | 365 kts | 2° |
| 2026-05-04 22:01 | 52.11371 | -3.36955 | 25357 ft | 364 kts | 2° |
| 2026-05-04 22:01 | 52.13896 | -3.36776 | 25006 ft | 363 kts | 1° |
| 2026-05-04 22:02 | 52.16384 | -3.36596 | 24662 ft | 362 kts | 1° |
| 2026-05-04 22:02 | 52.18896 | -3.36413 | 24297 ft | 362 kts | 1° |
| 2026-05-04 22:02 | 52.21408 | -3.36230 | 23951 ft | 361 kts | 1° |
| 2026-05-04 22:02 | 52.23920 | -3.36046 | 23571 ft | 361 kts | 1° |
| 2026-05-04 22:03 | 52.26431 | -3.35862 | 23182 ft | 360 kts | 1° |
| 2026-05-04 22:03 | 52.28931 | -3.35679 | 22810 ft | 359 kts | 1° |
| 2026-05-04 22:03 | 52.31419 | -3.35496 | 22453 ft | 357 kts | 1° |
| 2026-05-04 22:03 | 52.33891 | -3.35315 | 22107 ft | 355 kts | 1° |
| 2026-05-04 22:04 | 52.36352 | -3.35134 | 21757 ft | 353 kts | 1° |
| 2026-05-04 22:04 | 52.38801 | -3.34953 | 21420 ft | 351 kts | 1° |
| 2026-05-04 22:04 | 52.41235 | -3.34774 | 21085 ft | 349 kts | 1° |
| 2026-05-04 22:04 | 52.43654 | -3.34596 | 20754 ft | 347 kts | 1° |
| 2026-05-04 22:05 | 52.46065 | -3.34418 | 20424 ft | 346 kts | 1° |
| 2026-05-04 22:05 | 52.48460 | -3.34236 | 20082 ft | 344 kts | 1° |
| 2026-05-04 22:05 | 52.50848 | -3.34050 | 19765 ft | 342 kts | 2° |
| 2026-05-04 22:05 | 52.53222 | -3.33864 | 19446 ft | 341 kts | 2° |
| 2026-05-04 22:06 | 52.55581 | -3.33679 | 19120 ft | 339 kts | 2° |
| 2026-05-04 22:06 | 52.57936 | -3.33496 | 18797 ft | 338 kts | 2° |
| 2026-05-04 22:06 | 52.60278 | -3.33313 | 18477 ft | 336 kts | 2° |
| 2026-05-04 22:06 | 52.62604 | -3.33113 | 18120 ft | 335 kts | 5° |
| 2026-05-04 22:07 | 52.64873 | -3.32244 | 17649 ft | 336 kts | 19° |
| 2026-05-04 22:07 | 52.67072 | -3.30908 | 17215 ft | 337 kts | 21° |
| 2026-05-04 22:07 | 52.69264 | -3.29524 | 16764 ft | 338 kts | 21° |
| 2026-05-04 22:07 | 52.71454 | -3.28153 | 16313 ft | 335 kts | 20° |
| 2026-05-04 22:08 | 52.73614 | -3.26821 | 15883 ft | 328 kts | 20° |
| 2026-05-04 22:08 | 52.75729 | -3.25541 | 15459 ft | 322 kts | 19° |
| 2026-05-04 22:08 | 52.77772 | -3.24310 | 15058 ft | 317 kts | 19° |
| 2026-05-04 22:08 | 52.79881 | -3.23042 | 14646 ft | 314 kts | 19° |
| 2026-05-04 22:09 | 52.81931 | -3.21813 | 14259 ft | 313 kts | 19° |
| 2026-05-04 22:09 | 52.83969 | -3.20591 | 13856 ft | 311 kts | 19° |
| 2026-05-04 22:09 | 52.85999 | -3.19373 | 13409 ft | 310 kts | 19° |
| 2026-05-04 22:09 | 52.88018 | -3.18160 | 12982 ft | 308 kts | 19° |
| 2026-05-04 22:10 | 52.90067 | -3.17193 | 12555 ft | 304 kts | 5° |
| 2026-05-04 22:10 | 52.92163 | -3.17060 | 12185 ft | 300 kts | 359° |
| 2026-05-04 22:10 | 52.94247 | -3.16973 | 11793 ft | 298 kts | 0° |
| 2026-05-04 22:10 | 52.96312 | -3.16842 | 11408 ft | 296 kts | 1° |
| 2026-05-04 22:11 | 52.98337 | -3.16691 | 11043 ft | 294 kts | 1° |
| 2026-05-04 22:11 | 53.00376 | -3.16533 | 10659 ft | 293 kts | 1° |
| 2026-05-04 22:11 | 53.02425 | -3.16373 | 10282 ft | 291 kts | 1° |
| 2026-05-04 22:11 | 53.04450 | -3.16226 | 9884 ft | 290 kts | 1° |
| 2026-05-04 22:12 | 53.06457 | -3.16062 | 9477 ft | 287 kts | 1° |
| 2026-05-04 22:12 | 53.08441 | -3.15901 | 9083 ft | 285 kts | 1° |
| 2026-05-04 22:12 | 53.10402 | -3.15729 | 8699 ft | 279 kts | 2° |
| 2026-05-04 22:12 | 53.12311 | -3.15508 | 8337 ft | 273 kts | 2° |
| 2026-05-04 22:13 | 53.14187 | -3.15275 | 7987 ft | 268 kts | 2° |
| 2026-05-04 22:13 | 53.16029 | -3.15035 | 7643 ft | 263 kts | 2° |
| 2026-05-04 22:13 | 53.17810 | -3.14795 | 7311 ft | 258 kts | 2° |
| 2026-05-04 22:13 | 53.19605 | -3.14547 | 7011 ft | 252 kts | 2° |
| 2026-05-04 22:14 | 53.21331 | -3.14301 | 6765 ft | 245 kts | 2° |
| 2026-05-04 22:14 | 53.22998 | -3.14047 | 6565 ft | 234 kts | 2° |
| 2026-05-04 22:14 | 53.24598 | -3.13784 | 6287 ft | 230 kts | 2° |
| 2026-05-04 22:14 | 53.26193 | -3.13517 | 6010 ft | 232 kts | 2° |
| 2026-05-04 22:15 | 53.27806 | -3.13254 | 5704 ft | 235 kts | 3° |
| 2026-05-04 22:15 | 53.29422 | -3.12999 | 5402 ft | 238 kts | 2° |
| 2026-05-04 22:15 | 53.31074 | -3.12746 | 5095 ft | 239 kts | 3° |
| 2026-05-04 22:15 | 53.32731 | -3.12501 | 4779 ft | 239 kts | 2° |
| 2026-05-04 22:16 | 53.34361 | -3.12264 | 4460 ft | 232 kts | 2° |
| 2026-05-04 22:16 | 53.35936 | -3.11931 | 4144 ft | 226 kts | 15° |
| 2026-05-04 22:16 | 53.37206 | -3.10501 | 4052 ft | 229 kts | 49° |
| 2026-05-04 22:16 | 53.38054 | -3.08223 | 4044 ft | 231 kts | 59° |
| 2026-05-04 22:17 | 53.38836 | -3.05862 | 3918 ft | 232 kts | 59° |
| 2026-05-04 22:17 | 53.39613 | -3.03507 | 3751 ft | 230 kts | 59° |
| 2026-05-04 22:17 | 53.40380 | -3.01154 | 3597 ft | 229 kts | 59° |
| 2026-05-04 22:17 | 53.41136 | -2.98819 | 3410 ft | 228 kts | 59° |
| 2026-05-04 22:18 | 53.41838 | -2.96637 | 3219 ft | 226 kts | 59° |
| 2026-05-04 22:18 | 53.42550 | -2.94325 | 3040 ft | 222 kts | 66° |
| 2026-05-04 22:18 | 53.42763 | -2.91751 | 3024 ft | 226 kts | 89° |
| 2026-05-04 22:18 | 53.42732 | -2.89107 | 3004 ft | 226 kts | 89° |
| 2026-05-04 22:19 | 53.42695 | -2.86486 | 2996 ft | 223 kts | 90° |
| 2026-05-04 22:19 | 53.42656 | -2.83942 | 2985 ft | 215 kts | 90° |
| 2026-05-04 22:19 | 53.42615 | -2.81459 | 2924 ft | 215 kts | 90° |
| 2026-05-04 22:19 | 53.42572 | -2.78918 | 2665 ft | 219 kts | 89° |
| 2026-05-04 22:20 | 53.42523 | -2.76407 | 2418 ft | 214 kts | 89° |
| 2026-05-04 22:20 | 53.42466 | -2.73998 | 2179 ft | 206 kts | 89° |
| 2026-05-04 22:20 | 53.42397 | -2.71619 | 2044 ft | 205 kts | 89° |
| 2026-05-04 22:20 | 53.42320 | -2.69249 | 2004 ft | 202 kts | 90° |
| 2026-05-04 22:21 | 53.42244 | -2.66900 | 1999 ft | 202 kts | 90° |
| 2026-05-04 22:21 | 53.42110 | -2.64589 | 1989 ft | 206 kts | 103° |
| 2026-05-04 22:21 | 53.41351 | -2.62626 | 1997 ft | 205 kts | 142° |
| 2026-05-04 22:21 | 53.40048 | -2.61799 | 1993 ft | 199 kts | 179° |
| 2026-05-04 22:22 | 53.38677 | -2.61730 | 2000 ft | 197 kts | 180° |
| 2026-05-04 22:22 | 53.37317 | -2.61779 | 1985 ft | 194 kts | 197° |
| 2026-05-04 22:22 | 53.36202 | -2.62896 | 2018 ft | 189 kts | 229° |
| 2026-05-04 22:22 | 53.35130 | -2.64220 | 1993 ft | 197 kts | 207° |
| 2026-05-04 22:23 | 53.33915 | -2.65173 | 1959 ft | 185 kts | 224° |
| 2026-05-04 22:23 | 53.33400 | -2.66872 | 1992 ft | 158 kts | 277° |
| 2026-05-04 22:23 | 53.33798 | -2.68486 | 1885 ft | 151 kts | 300° |
| 2026-05-04 22:23 | 53.33932 | -2.70227 | 1694 ft | 153 kts | 269° |
| 2026-05-04 22:24 | 53.33924 | -2.71974 | 1464 ft | 146 kts | 274° |
| 2026-05-04 22:24 | 53.33886 | -2.73644 | 1259 ft | 141 kts | 270° |
| 2026-05-04 22:24 | 53.33814 | -2.75263 | 1079 ft | 140 kts | 269° |
| 2026-05-04 22:24 | 53.33738 | -2.76904 | 868 ft | 143 kts | 268° |
| 2026-05-04 22:25 | 53.33685 | -2.78003 | 745 ft | 142 kts | 268° |
| 2026-05-04 22:25 | 53.33609 | -2.79649 | 562 ft | 144 kts | 267° |
| 2026-05-04 22:25 | 53.33524 | -2.81317 | 361 ft | 143 kts | 267° |
| 2026-05-04 22:25 | 53.33429 | -2.83505 | 100 ft | 141 kts | 268° |
| 2026-05-04 22:26 | 53.33384 | -2.84553 | 71 ft | 118 kts | 264° |
| 2026-05-04 22:26 | 53.33338 | -2.85493 | 80 ft | 62 kts | 265° |
| 2026-05-04 22:26 | 53.33310 | -2.86093 | 69 ft | 30 kts | 268° |
| 2026-05-04 22:26 | 53.33318 | -2.86360 | 70 ft | 17 kts | 297° |
| 2026-05-04 22:27 | 53.33388 | -2.86424 | 77 ft | 9 kts | 353° |
| 2026-05-04 22:27 | 53.33447 | -2.86413 | 87 ft | 7 kts | 31° |
| 2026-05-04 22:27 | 53.33460 | -2.86389 | 83 ft | 3 kts | 56° |
| 2026-05-04 22:27 | 53.33485 | -2.86324 | 87 ft | 8 kts | 25° |
| 2026-05-04 22:28 | 53.33538 | -2.86310 | 84 ft | 8 kts | 18° |
| 2026-05-04 22:28 | 53.33577 | -2.86254 | 87 ft | 7 kts | 56° |
| 2026-05-04 22:28 | 53.33587 | -2.86173 | 84 ft | 7 kts | 86° |
| 2026-05-04 22:28 | 53.33591 | -2.86081 | 84 ft | 9 kts | 86° |
| 2026-05-04 22:29 | 53.33598 | -2.86034 | 88 ft | 4 kts | 44° |
| 2026-05-04 22:29 | 53.33621 | -2.86023 | 84 ft | 2 kts | 1° |
| 2026-05-04 22:29 | 53.33637 | -2.86025 | 84 ft | 2 kts | 356° |
| 2026-05-04 22:29 | 53.33643 | -2.86025 | 84 ft | 0 kts | 356° |